Kezdőlap
METAR-TAF:

METAR-TAF

Repülőterek :

légibázis

Tulln an der Donau, Ausztria

földrajzi szélesség: 48-19N, földrajzi hosszúság: 016-07E, magasság: 175 m

METAR: hiányzik

Idő: 21:36 (19:36 UTC)

Előrejelzés

A jelentés 32 órával és 21 perccel ezelõtt készült, 11:15 UTC
Az előrejelzés 19-én 12 óra UTC és 19-én 21 óra UTC között érvényes
Nyugat-északnyugati szél 5 kt
Látótávolság: 9000 m
Kevés felhő 4500 lábon

TAF: LOXT 191115Z 1912/1921 30005KT 9000 FEW045

Meteorológiai megfigyelések és előrejelzések több, mint 4000 repülőtéren (METAR és TAF jelentéseket).

A térképen piros és sárga pontok jelzik az elérhető meteorológiai állomásokat.

Mozgassa az egeret a pont fölött, hogy megjelenjen az állomás neve.

Azután kattintson az időjárási megfigyelések és előrejelzések megtekintéséhez.

A térkép megváltoztatása: kattintson a fekete keresztel jelölt zöld gombra ráközelítéshez, a vonallal jelölt zöld gombra távolításhoz, vagy a zöld nyilakra a szomszédos térképek eléréséhez.


METAR-TAF: